createdAt,value
2023-02-22T00:01:50.582Z,36.20
2023-02-22T00:04:21.116Z,36.80
2023-02-22T00:06:48.891Z,35.90
2023-02-22T00:09:20.470Z,35.00
2023-02-22T00:11:48.755Z,35.20
2023-02-22T00:14:20.211Z,37.10
2023-02-22T00:16:47.251Z,35.40
2023-02-22T00:19:14.565Z,34.20
2023-02-22T00:21:41.777Z,35.50
2023-02-22T00:24:23.034Z,34.60
2023-02-22T00:26:57.678Z,35.60
2023-02-22T00:29:25.484Z,37.40
2023-02-22T00:31:52.686Z,35.70
2023-02-22T00:34:19.730Z,36.70
2023-02-22T00:36:48.632Z,35.20
2023-02-22T00:39:15.954Z,34.00
2023-02-22T00:41:43.437Z,35.50
2023-02-22T00:44:10.716Z,36.10
2023-02-22T00:46:37.946Z,33.30
2023-02-22T00:49:05.251Z,36.30
2023-02-22T00:51:33.809Z,34.70
2023-02-22T00:54:00.710Z,31.70
2023-02-22T00:56:27.780Z,33.10
2023-02-22T00:58:54.946Z,33.80
2023-02-22T01:01:24.119Z,31.50
2023-02-22T01:03:51.600Z,33.90
2023-02-22T01:06:19.029Z,33.10
2023-02-22T01:08:47.013Z,34.70
2023-02-22T01:11:15.996Z,33.30
2023-02-22T01:13:45.264Z,35.00
2023-02-22T01:16:12.426Z,33.70
2023-02-22T01:18:39.712Z,34.30
2023-02-22T01:21:06.923Z,33.40
2023-02-22T01:23:33.973Z,31.30
2023-02-22T01:26:01.355Z,36.10
2023-02-22T01:28:29.155Z,37.00
2023-02-22T01:30:56.814Z,36.30
2023-02-22T01:33:23.760Z,39.20
2023-02-22T01:35:51.194Z,40.90
2023-02-22T01:38:18.387Z,34.10
2023-02-22T01:40:49.479Z,35.30
2023-02-22T01:43:28.048Z,37.30
2023-02-22T01:46:08.147Z,36.40
2023-02-22T01:48:38.722Z,37.90
2023-02-22T01:51:11.138Z,37.80
2023-02-22T01:53:50.822Z,35.30
2023-02-22T01:56:19.220Z,36.20
2023-02-22T01:58:50.927Z,42.20
2023-02-22T02:01:19.880Z,39.70
2023-02-22T02:03:49.123Z,39.10
2023-02-22T02:06:16.851Z,34.00
2023-02-22T02:09:14.768Z,37.10
2023-02-22T02:11:42.099Z,35.10
2023-02-22T02:14:10.551Z,37.00
2023-02-22T02:16:43.581Z,33.90
2023-02-22T02:19:39.788Z,33.70
2023-02-22T02:22:19.454Z,37.30
2023-02-22T02:25:05.093Z,34.90
2023-02-22T02:28:01.417Z,35.20
2023-02-22T02:30:59.620Z,37.30
2023-02-22T02:33:44.809Z,38.30
2023-02-22T02:36:17.565Z,40.20
2023-02-22T02:38:54.492Z,41.30
2023-02-22T02:41:33.690Z,38.60
2023-02-22T02:44:05.754Z,39.30
2023-02-22T02:46:37.236Z,35.50
2023-02-22T02:49:15.424Z,35.00
2023-02-22T02:51:47.241Z,49.00
2023-02-22T02:54:15.244Z,56.40
2023-02-22T02:56:45.265Z,74.20
2023-02-22T02:59:33.609Z,50.00
2023-02-22T03:02:30.866Z,69.60
2023-02-22T03:05:07.381Z,21.50
2023-02-22T03:07:49.938Z,23.20
2023-02-22T03:10:19.885Z,27.90
2023-02-22T03:13:05.063Z,31.60
2023-02-22T03:15:53.258Z,32.10
2023-02-22T03:18:42.813Z,36.00
2023-02-22T03:21:27.583Z,39.50
2023-02-22T03:24:10.272Z,35.80
2023-02-22T03:27:11.754Z,33.90
2023-02-22T03:29:43.220Z,33.70
2023-02-22T03:32:15.910Z,82.30
2023-02-22T03:34:52.595Z,103.10
2023-02-22T03:37:23.561Z,64.20
2023-02-22T03:39:54.725Z,85.90
2023-02-22T03:42:26.017Z,48.60
2023-02-22T03:44:57.831Z,54.00
2023-02-22T03:47:37.782Z,35.80
2023-02-22T03:50:35.707Z,29.80
2023-02-22T03:53:03.733Z,26.50
2023-02-22T03:55:31.417Z,18.50
2023-02-22T03:57:59.968Z,17.20
2023-02-22T04:00:30.583Z,18.60
2023-02-22T04:02:57.799Z,20.60
2023-02-22T04:05:26.073Z,19.80
2023-02-22T04:07:54.185Z,18.90
2023-02-22T04:10:21.307Z,19.90
2023-02-22T04:12:48.616Z,22.20
2023-02-22T04:15:18.540Z,23.30
2023-02-22T04:17:45.720Z,29.30
2023-02-22T04:20:13.606Z,25.90
2023-02-22T04:22:41.205Z,25.40
2023-02-22T04:25:08.629Z,25.20
2023-02-22T04:27:35.685Z,26.10
2023-02-22T04:30:02.863Z,27.90
2023-02-22T04:32:30.118Z,25.90
2023-02-22T04:34:57.108Z,31.40
2023-02-22T04:37:24.422Z,28.20
2023-02-22T04:39:51.632Z,26.90
2023-02-22T04:42:19.275Z,28.00
2023-02-22T04:44:46.168Z,26.50
2023-02-22T04:47:13.148Z,27.70
2023-02-22T04:49:40.002Z,27.00
2023-02-22T04:52:06.999Z,33.20
2023-02-22T04:54:34.213Z,24.90
2023-02-22T04:57:01.214Z,31.20
2023-02-22T04:59:28.356Z,33.90
2023-02-22T05:01:55.554Z,34.90
2023-02-22T05:04:22.758Z,31.30
2023-02-22T05:06:49.843Z,33.20
2023-02-22T05:09:16.882Z,35.30
2023-02-22T05:11:43.792Z,32.70
2023-02-22T05:14:10.892Z,36.60
2023-02-22T05:16:38.008Z,39.80
2023-02-22T05:19:04.962Z,37.60
2023-02-22T05:21:31.923Z,40.60
2023-02-22T05:23:58.946Z,40.40
2023-02-22T05:26:26.031Z,39.40
2023-02-22T05:28:53.440Z,36.80
2023-02-22T05:31:20.661Z,36.60
2023-02-22T05:33:48.405Z,38.00
2023-02-22T05:36:16.712Z,35.70
2023-02-22T05:38:45.088Z,34.50
2023-02-22T05:41:13.369Z,35.60
2023-02-22T05:43:41.045Z,39.70
2023-02-22T05:46:08.285Z,39.20
2023-02-22T05:48:35.245Z,40.10
2023-02-22T05:51:02.667Z,41.10
2023-02-22T05:53:29.443Z,41.10
2023-02-22T05:55:56.322Z,39.40
2023-02-22T05:58:23.749Z,41.60
2023-02-22T06:00:50.873Z,39.70
2023-02-22T06:03:17.890Z,39.00
2023-02-22T06:05:45.247Z,39.70
2023-02-22T06:08:12.278Z,40.50
2023-02-22T06:10:39.350Z,37.60
2023-02-22T06:13:06.849Z,35.40
2023-02-22T06:15:34.087Z,38.80
2023-02-22T06:18:01.840Z,39.30
2023-02-22T06:20:30.258Z,39.70
2023-02-22T06:22:59.022Z,38.30
2023-02-22T06:25:27.954Z,38.80
2023-02-22T06:27:54.893Z,37.30
2023-02-22T06:30:24.254Z,35.70
2023-02-22T06:32:51.423Z,34.60
2023-02-22T06:35:18.987Z,38.00
2023-02-22T06:37:45.782Z,35.00
2023-02-22T06:40:13.250Z,30.50
2023-02-22T06:42:40.383Z,30.50
2023-02-22T06:45:08.444Z,31.90
2023-02-22T06:47:39.760Z,29.40
2023-02-22T06:50:07.596Z,27.20
2023-02-22T06:52:34.576Z,27.00
2023-02-22T06:55:01.416Z,29.90
2023-02-22T06:57:28.271Z,28.20
2023-02-22T06:59:55.399Z,31.20
2023-02-22T07:02:22.252Z,28.20
2023-02-22T07:04:49.420Z,27.00
2023-02-22T07:07:16.852Z,25.70
2023-02-22T07:09:46.546Z,26.70
2023-02-22T07:12:13.705Z,27.00
2023-02-22T07:14:40.378Z,26.20
2023-02-22T07:17:07.635Z,24.50
2023-02-22T07:19:34.770Z,26.10
2023-02-22T07:22:01.879Z,24.20
2023-02-22T07:24:28.889Z,23.40
2023-02-22T07:27:01.338Z,21.50
2023-02-22T07:29:28.237Z,20.20
2023-02-22T07:31:55.726Z,23.30
2023-02-22T07:34:22.914Z,23.60
2023-02-22T07:36:49.998Z,20.50
2023-02-22T07:39:17.179Z,20.80
2023-02-22T07:41:44.105Z,20.80
2023-02-22T07:44:11.064Z,20.00
2023-02-22T07:46:37.825Z,20.10
2023-02-22T07:49:05.251Z,19.30
2023-02-22T07:51:33.091Z,19.10
2023-02-22T07:54:00.249Z,21.30
2023-02-22T07:56:26.928Z,20.10
2023-02-22T07:58:54.515Z,19.30
2023-02-22T08:01:21.624Z,21.70
2023-02-22T08:03:48.548Z,24.30
2023-02-22T08:06:15.459Z,18.60
2023-02-22T08:08:42.821Z,18.90
2023-02-22T08:11:09.949Z,18.60
2023-02-22T08:13:38.464Z,18.30
2023-02-22T08:16:05.731Z,17.60
2023-02-22T08:18:32.574Z,17.60
2023-02-22T08:20:59.277Z,17.70
2023-02-22T08:23:26.958Z,17.20
2023-02-22T08:25:54.426Z,16.70
2023-02-22T08:28:23.599Z,18.10
2023-02-22T08:30:51.749Z,17.90
2023-02-22T08:33:20.043Z,13.20
2023-02-22T08:35:51.690Z,15.00
2023-02-22T08:38:28.516Z,16.60
2023-02-22T08:40:55.935Z,16.40
2023-02-22T08:43:23.397Z,15.50
2023-02-22T08:45:51.561Z,15.40
2023-02-22T08:48:19.128Z,14.80
2023-02-22T08:50:46.668Z,15.50
2023-02-22T08:53:15.238Z,14.90
2023-02-22T08:55:43.093Z,15.20
2023-02-22T08:58:10.607Z,14.70
2023-02-22T09:00:39.152Z,13.20
2023-02-22T09:03:13.093Z,15.20
2023-02-22T09:05:40.676Z,12.90
2023-02-22T09:08:07.373Z,14.30
2023-02-22T09:10:35.054Z,15.20
2023-02-22T09:13:02.535Z,14.50
2023-02-22T09:15:30.112Z,14.80
2023-02-22T09:17:57.490Z,14.70
2023-02-22T09:20:25.026Z,14.00
2023-02-22T09:22:53.093Z,14.30
2023-02-22T09:25:22.786Z,13.90
2023-02-22T09:27:51.305Z,17.60
2023-02-22T09:30:33.354Z,16.30
2023-02-22T09:33:03.588Z,17.60
2023-02-22T09:35:30.730Z,16.90
2023-02-22T09:37:58.958Z,17.50
2023-02-22T09:40:30.086Z,17.20
2023-02-22T09:43:08.098Z,16.00
2023-02-22T09:45:44.921Z,16.40
2023-02-22T09:48:21.775Z,16.70
2023-02-22T09:50:52.866Z,17.10
2023-02-22T09:53:30.859Z,17.10
2023-02-22T09:56:04.609Z,17.70
2023-02-22T09:58:36.715Z,17.10
2023-02-22T10:01:32.027Z,16.80
2023-02-22T10:04:18.719Z,15.20
2023-02-22T10:07:14.211Z,18.20
2023-02-22T10:09:43.385Z,16.80
2023-02-22T10:12:15.217Z,16.20
2023-02-22T10:15:13.083Z,15.60
2023-02-22T10:18:17.509Z,15.80
2023-02-22T10:21:02.379Z,15.70
2023-02-22T10:23:55.966Z,15.10
2023-02-22T10:26:26.780Z,15.80
2023-02-22T10:29:17.360Z,14.30
2023-02-22T10:31:52.374Z,14.70
2023-02-22T10:34:29.815Z,15.90
2023-02-22T10:37:18.085Z,14.50
2023-02-22T10:39:46.782Z,16.00
2023-02-22T10:42:13.934Z,14.40
2023-02-22T10:44:40.820Z,15.70
2023-02-22T10:47:10.878Z,15.20
2023-02-22T10:49:44.431Z,13.90
2023-02-22T10:52:20.179Z,14.10
2023-02-22T10:54:50.299Z,14.10
2023-02-22T10:57:22.894Z,14.30
2023-02-22T10:59:51.995Z,16.20
2023-02-22T11:02:21.462Z,15.20
2023-02-22T11:04:53.559Z,15.90
2023-02-22T11:07:29.872Z,13.80
2023-02-22T11:09:59.957Z,14.50
2023-02-22T11:12:29.930Z,12.80
2023-02-22T11:14:57.160Z,14.80
2023-02-22T11:17:34.600Z,14.10
2023-02-22T11:20:01.715Z,15.20
2023-02-22T11:22:41.195Z,14.60
2023-02-22T11:25:08.658Z,13.60
2023-02-22T11:27:40.302Z,12.40
2023-02-22T11:30:17.678Z,14.80
2023-02-22T11:32:48.444Z,14.60
2023-02-22T11:35:29.905Z,14.90
2023-02-22T11:38:12.373Z,13.50
2023-02-22T11:40:40.158Z,13.50
2023-02-22T11:43:12.049Z,13.40
2023-02-22T11:45:44.153Z,14.10
2023-02-22T11:48:21.005Z,12.60
2023-02-22T11:51:16.509Z,11.90
2023-02-22T11:54:25.438Z,13.10
2023-02-22T11:56:55.854Z,10.20
2023-02-22T12:00:01.806Z,12.60
2023-02-22T12:02:57.169Z,10.70
2023-02-22T12:05:40.498Z,11.60
2023-02-22T12:08:36.723Z,13.90
2023-02-22T12:11:10.133Z,10.80
2023-02-22T12:13:59.664Z,10.70
2023-02-22T12:16:45.026Z,11.10
2023-02-22T12:19:34.987Z,10.20
2023-02-22T12:22:09.935Z,9.90
2023-02-22T12:24:46.826Z,8.70
2023-02-22T12:27:37.050Z,10.30
2023-02-22T12:30:12.864Z,9.40
2023-02-22T12:32:50.709Z,10.00
2023-02-22T12:35:37.403Z,8.90
2023-02-22T12:38:25.860Z,8.10
2023-02-22T12:40:57.107Z,8.00
2023-02-22T12:43:35.607Z,8.00
2023-02-22T12:46:21.220Z,8.80
2023-02-22T12:49:00.718Z,10.10
2023-02-22T12:51:55.533Z,7.50
2023-02-22T12:54:31.781Z,9.30
2023-02-22T12:57:09.923Z,8.70
2023-02-22T12:59:47.753Z,8.00
2023-02-22T13:02:37.000Z,8.90
2023-02-22T13:05:03.823Z,8.60
2023-02-22T13:07:46.566Z,10.00
2023-02-22T13:10:19.307Z,8.90
2023-02-22T13:12:52.536Z,7.50
2023-02-22T13:15:42.876Z,8.70
2023-02-22T13:18:19.298Z,8.90
2023-02-22T13:20:59.037Z,9.30
2023-02-22T13:23:39.060Z,9.70
2023-02-22T13:26:36.243Z,10.50
2023-02-22T13:29:13.794Z,8.60
2023-02-22T13:31:54.857Z,8.90
2023-02-22T13:34:45.515Z,9.80
2023-02-22T13:37:27.809Z,8.80
2023-02-22T13:40:16.877Z,9.50
2023-02-22T13:42:59.703Z,9.90
2023-02-22T13:45:50.939Z,11.40
2023-02-22T13:48:33.916Z,11.30
2023-02-22T13:51:30.188Z,8.40
2023-02-22T13:54:07.543Z,8.50
2023-02-22T13:56:34.832Z,9.70
2023-02-22T13:59:04.268Z,9.10
2023-02-22T14:01:47.927Z,8.40
2023-02-22T14:04:22.880Z,10.40
2023-02-22T14:07:25.810Z,9.00
2023-02-22T14:09:57.502Z,9.30
2023-02-22T14:12:30.256Z,8.70
2023-02-22T14:15:28.733Z,9.20
2023-02-22T14:18:02.274Z,9.30
2023-02-22T14:20:37.118Z,8.00
2023-02-22T14:23:25.817Z,9.10
2023-02-22T14:25:53.527Z,9.10
2023-02-22T14:28:37.325Z,7.40
2023-02-22T14:31:25.513Z,8.00
2023-02-22T14:34:13.967Z,7.10
2023-02-22T14:37:08.022Z,9.40
2023-02-22T14:39:51.203Z,8.90
2023-02-22T14:42:34.023Z,7.30
2023-02-22T14:45:37.001Z,9.60
2023-02-22T14:48:46.966Z,7.90
2023-02-22T14:51:34.114Z,9.10
2023-02-22T14:54:42.148Z,9.90
2023-02-22T14:57:35.927Z,7.00
2023-02-22T15:00:29.633Z,10.20
2023-02-22T15:03:06.907Z,9.30
2023-02-22T15:05:45.842Z,10.30
2023-02-22T15:08:31.597Z,8.00
2023-02-22T15:11:52.347Z,8.40
2023-02-22T15:14:43.783Z,8.90
2023-02-22T15:17:54.534Z,10.70
2023-02-22T15:20:54.623Z,7.60
2023-02-22T15:23:32.751Z,9.90
2023-02-22T15:26:07.823Z,8.50
2023-02-22T15:29:04.638Z,8.40
2023-02-22T15:31:39.265Z,10.00
2023-02-22T15:34:24.647Z,8.60
2023-02-22T15:36:58.745Z,8.70
2023-02-22T15:39:33.172Z,7.30
2023-02-22T15:42:05.980Z,8.90
2023-02-22T15:44:40.153Z,9.10
2023-02-22T15:47:21.055Z,8.30
2023-02-22T15:50:21.317Z,9.00
2023-02-22T15:52:59.465Z,8.30
2023-02-22T15:55:38.269Z,9.50
2023-02-22T15:58:16.959Z,10.60
2023-02-22T16:00:47.093Z,9.20
2023-02-22T16:03:16.794Z,11.80
2023-02-22T16:05:49.503Z,12.40
2023-02-22T16:08:19.408Z,12.00
2023-02-22T16:11:02.331Z,12.20
2023-02-22T16:13:33.174Z,13.30
2023-02-22T16:16:23.589Z,10.90
2023-02-22T16:18:51.527Z,10.20
2023-02-22T16:21:23.642Z,12.00
2023-02-22T16:24:01.349Z,9.40
2023-02-22T16:26:34.446Z,10.40
2023-02-22T16:29:07.494Z,10.80
2023-02-22T16:31:36.976Z,10.60
2023-02-22T16:34:09.072Z,11.00
2023-02-22T16:36:45.479Z,11.50
2023-02-22T16:39:19.597Z,10.40
2023-02-22T16:41:46.706Z,11.70
2023-02-22T16:44:13.699Z,12.00
2023-02-22T16:46:41.950Z,13.00
2023-02-22T16:49:13.148Z,12.60
2023-02-22T16:51:47.578Z,12.50
2023-02-22T16:54:19.753Z,14.50
2023-02-22T16:56:46.477Z,14.10
2023-02-22T16:59:15.413Z,12.50
2023-02-22T17:01:42.961Z,14.00
2023-02-22T17:04:15.934Z,15.10
2023-02-22T17:06:42.689Z,15.60
2023-02-22T17:09:10.017Z,13.90
2023-02-22T17:11:37.910Z,13.90
2023-02-22T17:14:05.828Z,16.00
2023-02-22T17:16:32.873Z,17.80
2023-02-22T17:19:00.157Z,15.70
2023-02-22T17:21:27.130Z,15.60
2023-02-22T17:23:54.069Z,16.60
2023-02-22T17:26:20.868Z,14.90
2023-02-22T17:28:47.544Z,17.80
2023-02-22T17:31:26.557Z,15.20
2023-02-22T17:33:55.034Z,15.70
2023-02-22T17:36:23.478Z,15.30
2023-02-22T17:38:50.228Z,16.10
2023-02-22T17:41:16.713Z,17.50
2023-02-22T17:43:43.777Z,16.60
2023-02-22T17:46:10.591Z,17.90
2023-02-22T17:48:38.194Z,15.40
2023-02-22T17:51:06.917Z,18.50
2023-02-22T17:53:33.976Z,18.00
2023-02-22T17:56:06.127Z,18.00
2023-02-22T17:58:33.270Z,18.40
2023-02-22T18:01:00.277Z,17.20
2023-02-22T18:03:29.049Z,16.60
2023-02-22T18:05:58.018Z,17.20
2023-02-22T18:08:29.770Z,18.50
2023-02-22T18:10:56.901Z,17.40
2023-02-22T18:13:26.461Z,18.50
2023-02-22T18:15:53.699Z,18.00
2023-02-22T18:18:22.207Z,19.10
2023-02-22T18:20:51.606Z,20.80
2023-02-22T18:23:22.264Z,20.60
2023-02-22T18:26:08.967Z,20.40
2023-02-22T18:28:37.616Z,21.70
2023-02-22T18:31:15.702Z,20.40
2023-02-22T18:33:43.665Z,18.90
2023-02-22T18:36:14.206Z,19.90
2023-02-22T18:38:43.010Z,19.50
2023-02-22T18:41:12.234Z,19.90
2023-02-22T18:43:39.885Z,18.20
2023-02-22T18:46:15.043Z,17.40
2023-02-22T18:48:42.883Z,19.50
2023-02-22T18:51:11.792Z,21.80
2023-02-22T18:53:40.963Z,18.90
2023-02-22T18:56:10.532Z,22.20
2023-02-22T18:58:38.845Z,19.30
2023-02-22T19:01:07.279Z,20.40
2023-02-22T19:03:38.378Z,20.80
2023-02-22T19:06:10.694Z,22.90
2023-02-22T19:08:42.518Z,20.00
2023-02-22T19:11:19.057Z,20.90
2023-02-22T19:13:47.488Z,20.10
2023-02-22T19:16:16.558Z,19.20
2023-02-22T19:18:44.159Z,22.50
2023-02-22T19:21:13.892Z,22.00
2023-02-22T19:23:48.277Z,20.80
2023-02-22T19:26:20.618Z,23.50
2023-02-22T19:29:04.991Z,21.70
2023-02-22T19:31:33.922Z,22.80
2023-02-22T19:34:03.811Z,23.30
2023-02-22T19:36:35.317Z,25.20
2023-02-22T19:39:02.257Z,23.70
2023-02-22T19:41:29.604Z,21.70
2023-02-22T19:43:56.751Z,24.90
2023-02-22T19:46:24.902Z,28.90
2023-02-22T19:48:52.936Z,27.40
2023-02-22T19:51:26.386Z,23.70
2023-02-22T19:53:55.894Z,24.50
2023-02-22T19:56:27.226Z,22.40
2023-02-22T19:58:56.568Z,23.30
2023-02-22T20:01:26.423Z,26.60
2023-02-22T20:03:55.132Z,25.80
2023-02-22T20:06:26.297Z,22.10
2023-02-22T20:08:54.677Z,23.30
2023-02-22T20:11:22.843Z,21.20
2023-02-22T20:13:50.337Z,22.00
2023-02-22T20:16:17.299Z,24.30
2023-02-22T20:18:45.275Z,24.10
2023-02-22T20:21:18.657Z,25.60
2023-02-22T20:23:49.209Z,22.70
2023-02-22T20:26:26.434Z,23.10
2023-02-22T20:28:55.207Z,25.50
2023-02-22T20:31:23.043Z,24.30
2023-02-22T20:33:53.971Z,27.10
2023-02-22T20:36:24.219Z,26.40
2023-02-22T20:38:56.786Z,25.20
2023-02-22T20:41:26.987Z,23.90
2023-02-22T20:43:55.712Z,24.30
2023-02-22T20:46:23.840Z,27.40
2023-02-22T20:48:55.686Z,24.20
2023-02-22T20:51:23.371Z,26.50
2023-02-22T20:53:54.053Z,26.40
2023-02-22T20:56:23.817Z,26.70
2023-02-22T20:58:52.654Z,24.60
2023-02-22T21:01:20.832Z,25.90
2023-02-22T21:03:48.677Z,27.90
2023-02-22T21:06:17.036Z,28.20
2023-02-22T21:08:45.245Z,24.90
2023-02-22T21:11:14.628Z,26.90
2023-02-22T21:13:41.715Z,24.40
2023-02-22T21:16:15.258Z,27.50
2023-02-22T21:18:42.210Z,26.70
2023-02-22T21:21:10.434Z,26.70
2023-02-22T21:23:38.485Z,26.50
2023-02-22T21:26:05.334Z,27.00
2023-02-22T21:28:50.607Z,28.20
2023-02-22T21:31:19.188Z,27.10
2023-02-22T21:33:49.456Z,34.10
2023-02-22T21:36:16.549Z,27.90
2023-02-22T21:38:53.337Z,27.00
2023-02-22T21:41:21.615Z,28.10
2023-02-22T21:43:52.169Z,30.20
2023-02-22T21:46:20.019Z,25.20
2023-02-22T21:48:50.250Z,25.00
2023-02-22T21:51:19.970Z,28.30
2023-02-22T21:53:49.446Z,26.60
2023-02-22T21:56:19.005Z,27.60
2023-02-22T21:58:47.039Z,26.60
2023-02-22T22:01:17.587Z,26.40
2023-02-22T22:03:45.830Z,26.60
2023-02-22T22:06:13.960Z,26.10
2023-02-22T22:08:42.207Z,26.60
2023-02-22T22:11:14.875Z,27.40
2023-02-22T22:13:42.539Z,27.00
2023-02-22T22:16:18.624Z,29.60
2023-02-22T22:18:46.764Z,26.60
2023-02-22T22:21:22.672Z,28.30
2023-02-22T22:23:54.176Z,29.30
2023-02-22T22:26:24.443Z,29.80
2023-02-22T22:28:54.384Z,29.40
2023-02-22T22:31:23.722Z,30.60
2023-02-22T22:33:50.907Z,27.00
2023-02-22T22:36:21.240Z,30.30
2023-02-22T22:38:48.466Z,29.60
2023-02-22T22:41:17.665Z,30.00
2023-02-22T22:43:48.220Z,33.80
2023-02-22T22:46:16.825Z,33.10
2023-02-22T22:48:46.799Z,32.60
2023-02-22T22:51:21.200Z,31.70
2023-02-22T22:53:49.709Z,32.20
2023-02-22T22:56:57.237Z,33.00
2023-02-22T22:59:24.320Z,32.00
2023-02-22T23:01:52.356Z,30.60
2023-02-22T23:04:19.260Z,34.10
2023-02-22T23:06:49.866Z,30.70
2023-02-22T23:09:21.672Z,31.60
2023-02-22T23:11:56.995Z,29.10
2023-02-22T23:14:30.974Z,32.40
2023-02-22T23:17:03.141Z,32.00
2023-02-22T23:19:35.555Z,28.70
2023-02-22T23:22:05.223Z,31.90
2023-02-22T23:24:36.022Z,31.30
2023-02-22T23:27:06.912Z,31.90
2023-02-22T23:29:36.730Z,37.80
2023-02-22T23:32:05.750Z,33.70
2023-02-22T23:34:32.940Z,35.60
2023-02-22T23:36:59.882Z,36.90
2023-02-22T23:39:27.381Z,38.70
2023-02-22T23:42:01.719Z,36.20
2023-02-22T23:44:29.472Z,37.50
2023-02-22T23:46:56.874Z,36.30
2023-02-22T23:49:27.165Z,34.90
2023-02-22T23:51:54.059Z,36.00
2023-02-22T23:54:25.350Z,36.10
2023-02-22T23:57:02.415Z,30.00
2023-02-22T23:59:30.500Z,31.90
